Time;durP1;ratioP1;P1;durP2;ratioP2;P2;SDS_P1;SDS_P2;PMS_P1;PMS_P2;Temp;Humidity;BMP_temperature;BMP_pressure;BME280_temperature;BME280_humidity;BME280_pressure;Samples;Min_cycle;Max_cycle;Signal;HPM_P1;HPM_P2
2022/11/22 00:01:08;;;;;;;2.30;2.20;;;;;;;5.98;67.42;94389.13;5017910;28;20210;-71
2022/11/22 00:03:34;;;;;;;1.83;1.73;;;;;;;5.98;67.18;94386.41;5017560;28;20202;-71
2022/11/22 00:06:01;;;;;;;2.05;1.95;;;;;;;5.96;67.68;94383.22;5017826;28;20202;-71
2022/11/22 00:08:33;;;;;;;1.90;1.80;;;;;;;5.95;67.88;94380.81;5018139;28;20194;-70
2022/11/22 00:11:01;;;;;;;2.00;1.90;;;;;;;5.94;67.63;94379.22;5017403;28;20205;-70
2022/11/22 00:13:29;;;;;;;2.75;1.73;;;;;;;5.94;68.43;94393.69;5017489;28;20646;-71
2022/11/22 00:16:01;;;;;;;1.80;1.70;;;;;;;5.93;68.70;94396.78;5017667;28;20225;-70
2022/11/22 00:18:31;;;;;;;2.28;2.17;;;;;;;5.90;68.57;94392.75;5018158;28;20198;-70
2022/11/22 00:21:10;;;;;;;2.13;2.03;;;;;;;5.91;68.86;94394.34;5014055;28;20238;-70
2022/11/22 00:23:43;;;;;;;2.13;2.03;;;;;;;5.91;68.28;94399.03;5014287;28;20203;-71
2022/11/22 00:26:10;;;;;;;1.90;1.80;;;;;;;5.93;68.29;94396.78;5014798;28;20202;-71
2022/11/22 00:28:41;;;;;;;2.10;2.00;;;;;;;5.91;67.97;94396.28;5014555;28;20195;-71
2022/11/22 00:31:08;;;;;;;2.40;2.30;;;;;;;5.90;68.36;94381.81;5014550;28;20206;-70
2022/11/22 00:33:36;;;;;;;2.20;2.10;;;;;;;5.91;68.59;94388.06;5013863;28;20191;-70
2022/11/22 00:36:04;;;;;;;2.33;2.17;;;;;;;5.92;68.58;94389.66;5014980;28;20219;-70
2022/11/22 00:38:34;;;;;;;2.30;2.20;;;;;;;5.89;68.91;94390.38;5014692;28;20195;-70
2022/11/22 00:41:03;;;;;;;2.50;2.30;;;;;;;5.88;68.79;94388.75;5014401;28;20219;-70
2022/11/22 00:43:31;;;;;;;2.53;2.40;;;;;;;5.90;69.22;94397.44;5014223;28;20214;-70
2022/11/22 00:46:00;;;;;;;2.95;2.75;;;;;;;5.91;69.52;94388.88;5014505;28;20199;-70
2022/11/22 00:48:31;;;;;;;2.50;2.40;;;;;;;5.91;69.22;94390.81;5014787;28;20612;-70
2022/11/22 00:50:57;;;;;;;2.50;2.40;;;;;;;5.92;69.08;94397.88;5014123;28;20222;-70
2022/11/22 00:53:26;;;;;;;2.40;2.30;;;;;;;5.89;69.14;94385.69;5014433;28;20195;-70
2022/11/22 00:55:53;;;;;;;2.30;2.20;;;;;;;5.87;69.35;94384.44;5014558;28;20227;-70
2022/11/22 00:58:22;;;;;;;2.70;2.50;;;;;;;5.81;69.41;94375.66;5014147;28;20207;-70
2022/11/22 01:00:49;;;;;;;2.33;2.22;;;;;;;5.78;69.83;94379.84;5014115;28;20537;-70
2022/11/22 01:03:16;;;;;;;2.33;2.22;;;;;;;5.77;69.77;94375.53;5013785;28;20198;-70
2022/11/22 01:05:43;;;;;;;2.10;2.00;;;;;;;5.76;69.74;94378.59;5013973;28;20207;-70
2022/11/22 01:08:11;;;;;;;2.45;2.35;;;;;;;5.72;70.16;94383.94;5014120;28;20195;-70
2022/11/22 01:10:38;;;;;;;2.80;2.65;;;;;;;5.69;70.52;94378.34;5014420;28;20203;-70
2022/11/22 01:13:05;;;;;;;2.50;2.40;;;;;;;5.67;70.60;94375.97;5013915;28;20206;-70
2022/11/22 01:15:35;;;;;;;2.50;2.40;;;;;;;5.63;70.65;94376.94;5013862;28;20566;-69
2022/11/22 01:18:02;;;;;;;2.30;2.20;;;;;;;5.59;70.54;94389.72;5014417;28;20210;-69
2022/11/22 01:20:30;;;;;;;2.50;2.40;;;;;;;5.59;70.72;94379.56;5015247;28;20241;-69
2022/11/22 01:22:57;;;;;;;2.60;2.40;;;;;;;5.56;70.55;94374.78;5017300;28;20207;-70
2022/11/22 01:25:23;;;;;;;2.83;2.70;;;;;;;5.52;71.06;94384.81;5017315;28;20199;-70
2022/11/22 01:27:51;;;;;;;2.60;2.40;;;;;;;5.49;71.00;94385.47;5017605;28;20194;-70
2022/11/22 01:30:18;;;;;;;2.85;2.65;;;;;;;5.43;70.43;94382.16;5017810;28;20202;-70
2022/11/22 01:32:46;;;;;;;2.80;2.60;;;;;;;5.36;70.08;94373.69;5017416;28;20195;-71
2022/11/22 01:35:12;;;;;;;2.63;2.50;;;;;;;5.30;70.23;94373.13;5017242;28;20227;-71
2022/11/22 01:37:39;;;;;;;2.90;2.70;;;;;;;5.23;70.74;94375.59;5017685;28;20631;-71
2022/11/22 01:40:07;;;;;;;2.95;2.75;;;;;;;5.23;71.28;94380.28;5017295;28;20202;-71
2022/11/22 01:42:45;;;;;;;3.03;2.83;;;;;;;5.22;70.80;94367.72;5017036;28;20191;-71
2022/11/22 01:45:41;;;;;;;3.25;3.05;;;;;;;5.16;71.03;94366.34;5016979;28;20203;-71
2022/11/22 01:48:18;;;;;;;2.80;2.60;;;;;;;5.10;71.09;94370.41;5016864;28;20540;-71
2022/11/22 01:50:47;;;;;;;2.72;2.63;;;;;;;5.04;71.87;94365.13;5017057;28;20202;-70
2022/11/22 01:53:17;;;;;;;2.90;2.70;;;;;;;5.00;72.00;94366.94;5016689;28;20199;-71
2022/11/22 01:55:44;;;;;;;3.10;2.90;;;;;;;5.00;72.27;94358.72;5016771;28;20215;-70
2022/11/22 01:58:13;;;;;;;3.33;3.13;;;;;;;4.96;71.77;94352.34;5016848;28;20608;-70
2022/11/22 02:00:39;;;;;;;3.03;2.72;;;;;;;4.92;72.21;94365.09;5017647;28;20195;-70
2022/11/22 02:03:08;;;;;;;3.00;2.80;;;;;;;4.91;72.47;94365.44;5016654;28;20195;-70
2022/11/22 02:05:36;;;;;;;3.13;2.90;;;;;;;4.88;72.22;94368.81;5016512;28;20601;-70
2022/11/22 02:08:07;;;;;;;3.20;3.00;;;;;;;4.87;72.29;94375.44;5016986;28;20211;-71
2022/11/22 02:10:36;;;;;;;3.25;3.05;;;;;;;4.84;72.42;94374.16;5016993;28;20202;-71
2022/11/22 02:13:03;;;;;;;3.80;3.42;;;;;;;4.81;72.61;94375.59;5016230;28;20207;-70
2022/11/22 02:15:30;;;;;;;3.10;2.90;;;;;;;4.81;72.43;94381.06;5016398;28;20222;-70
2022/11/22 02:17:57;;;;;;;3.03;2.83;;;;;;;4.86;72.32;94379.28;5033047;28;20274;-70
2022/11/22 02:20:24;;;;;;;3.10;2.80;;;;;;;4.83;72.52;94380.75;5015893;28;20238;-70
2022/11/22 02:22:55;;;;;;;3.10;2.90;;;;;;;4.82;72.77;94369.00;5016293;28;20210;-70
2022/11/22 02:25:26;;;;;;;3.08;2.88;;;;;;;4.80;72.75;94371.28;5015987;28;20198;-70
2022/11/22 02:27:54;;;;;;;2.92;2.72;;;;;;;4.80;72.29;94367.75;5016370;28;20208;-70
2022/11/22 02:30:20;;;;;;;2.47;2.28;;;;;;;4.79;72.16;94366.13;5016159;28;20207;-70
2022/11/22 02:32:47;;;;;;;2.72;2.53;;;;;;;4.80;71.89;94365.03;5015095;28;20210;-70
2022/11/22 02:35:18;;;;;;;2.40;2.30;;;;;;;4.78;72.17;94359.88;5016244;28;20202;-70
2022/11/22 02:37:45;;;;;;;2.65;2.45;;;;;;;4.76;72.45;94364.09;5015720;28;20254;-70
2022/11/22 02:40:14;;;;;;;2.42;2.33;;;;;;;4.72;72.05;94368.59;5016784;28;20205;-70
2022/11/22 02:42:42;;;;;;;2.97;2.78;;;;;;;4.72;72.15;94360.41;5016328;28;20183;-70
2022/11/22 02:45:11;;;;;;;3.05;2.58;;;;;;;4.73;72.32;94364.75;5016205;28;20198;-70
2022/11/22 02:47:38;;;;;;;2.40;2.28;;;;;;;4.66;72.57;94359.81;5015654;28;20191;-71
2022/11/22 02:50:05;;;;;;;3.15;2.95;;;;;;;4.51;72.39;94360.41;5016131;28;20195;-70
2022/11/22 02:52:32;;;;;;;3.40;3.10;;;;;;;4.34;72.80;94353.13;5015811;28;20627;-70
2022/11/22 02:54:59;;;;;;;3.20;3.00;;;;;;;4.27;73.86;94356.38;5016063;28;20191;-70
2022/11/22 02:57:25;;;;;;;3.53;3.33;;;;;;;4.17;73.73;94355.94;5015753;28;20211;-70
2022/11/22 02:59:52;;;;;;;3.58;3.35;;;;;;;4.15;73.47;94363.69;5015705;28;20218;-70
2022/11/22 03:02:20;;;;;;;4.15;3.78;;;;;;;4.17;74.25;94361.41;5015805;28;20199;-70
2022/11/22 03:04:47;;;;;;;4.00;3.70;;;;;;;4.17;73.99;94362.19;5015824;28;20206;-70
2022/11/22 03:07:15;;;;;;;4.28;3.97;;;;;;;4.16;74.29;94366.06;5015580;28;20576;-70
2022/11/22 03:09:42;;;;;;;3.90;3.70;;;;;;;4.12;74.02;94359.69;5015434;28;20195;-70
2022/11/22 03:12:09;;;;;;;3.72;3.40;;;;;;;4.13;74.28;94352.28;5015684;28;20195;-70
2022/11/22 03:14:36;;;;;;;4.20;3.90;;;;;;;4.11;74.42;94349.91;5015127;28;20187;-70
2022/11/22 03:17:02;;;;;;;3.70;3.40;;;;;;;4.12;74.58;94353.41;5015270;28;20401;-70
2022/11/22 03:19:30;;;;;;;4.32;4.03;;;;;;;4.13;74.85;94353.06;5018757;28;20239;-70
2022/11/22 03:21:57;;;;;;;3.42;3.22;;;;;;;4.16;74.73;94357.09;5015879;28;20227;-70
2022/11/22 03:24:24;;;;;;;4.13;3.80;;;;;;;4.13;74.84;94352.28;5014931;28;20191;-70
2022/11/22 03:26:51;;;;;;;3.85;3.55;;;;;;;4.18;74.65;94352.91;5015372;28;20253;-70
2022/11/22 03:29:18;;;;;;;4.93;4.53;;;;;;;4.19;75.17;94343.56;5014940;28;20207;-70
2022/11/22 03:31:45;;;;;;;4.35;4.05;;;;;;;4.17;75.02;94351.28;5015119;28;20223;-70
2022/11/22 03:34:12;;;;;;;6.20;5.70;;;;;;;4.17;74.85;94351.28;5015649;28;20195;-70
2022/11/22 03:36:40;;;;;;;4.93;4.63;;;;;;;4.16;74.91;94351.63;5016049;28;20218;-71
2022/11/22 03:39:07;;;;;;;4.05;3.75;;;;;;;4.11;75.52;94341.72;5015567;28;20210;-70
2022/11/22 03:41:34;;;;;;;5.07;4.68;;;;;;;3.98;74.83;94346.25;5015006;28;20203;-70
2022/11/22 03:44:00;;;;;;;5.43;5.03;;;;;;;3.97;75.54;94352.84;5015179;28;20207;-70
2022/11/22 03:46:27;;;;;;;4.75;4.45;;;;;;;3.96;75.68;94353.97;5014982;28;20187;-70
2022/11/22 03:48:54;;;;;;;4.93;4.53;;;;;;;3.99;75.70;94349.78;5014998;28;20191;-70
2022/11/22 03:51:21;;;;;;;5.10;4.70;;;;;;;4.00;75.36;94349.47;5014889;28;20206;-71
2022/11/22 03:53:49;;;;;;;5.65;5.20;;;;;;;3.99;75.11;94353.31;5015346;28;20519;-71
2022/11/22 03:56:16;;;;;;;5.57;5.18;;;;;;;3.89;74.81;94358.34;5014644;28;20227;-71
2022/11/22 03:58:42;;;;;;;5.45;5.05;;;;;;;3.88;74.75;94364.91;5015151;28;20211;-70
2022/11/22 04:01:09;;;;;;;5.45;5.05;;;;;;;3.88;75.29;94367.66;5015370;28;20271;-70
2022/11/22 04:03:36;;;;;;;5.03;4.63;;;;;;;3.89;75.22;94372.00;5014478;28;20199;-70
2022/11/22 04:06:02;;;;;;;7.68;6.97;;;;;;;3.85;75.35;94371.84;5014841;28;20210;-69
2022/11/22 04:08:29;;;;;;;8.05;7.18;;;;;;;3.83;75.03;94366.72;5014627;28;20191;-71
2022/11/22 04:10:57;;;;;;;6.20;5.70;;;;;;;3.81;75.38;94370.88;5014410;28;20654;-71
2022/11/22 04:15:05;;;;;;;6.20;5.70;;;;;;;3.79;75.38;94373.94;5015379;28;20210;-70
2022/11/22 04:16:10;;;;;;;5.55;5.15;;;;;;;3.80;75.99;94372.00;5014165;28;20285;-72
2022/11/22 04:18:37;;;;;;;7.30;6.60;;;;;;;3.81;75.99;94382.63;5014892;28;20203;-71
2022/11/22 04:25:12;;;;;;;9.38;8.48;;;;;;;3.68;75.72;94377.38;5014220;28;20511;-72
2022/11/22 04:26:36;;;;;;;7.10;6.45;;;;;;;3.60;75.28;94382.53;5014110;28;20199;-72
2022/11/22 04:29:03;;;;;;;6.13;5.53;;;;;;;3.60;75.75;94381.72;5014348;28;20229;-72
2022/11/22 04:34:14;;;;;;;7.30;6.60;;;;;;;3.53;75.47;94387.66;5014021;28;20195;-71
2022/11/22 04:36:40;;;;;;;5.95;5.45;;;;;;;3.57;76.25;94398.72;5015094;28;20218;-71
2022/11/22 04:39:07;;;;;;;5.85;5.35;;;;;;;3.66;76.22;94406.88;5014356;28;20199;-72
2022/11/22 04:41:34;;;;;;;5.68;5.28;;;;;;;3.71;76.53;94399.34;5014348;28;20410;-71
2022/11/22 04:46:47;;;;;;;6.30;5.72;;;;;;;3.81;76.62;94404.44;5014467;28;20203;-72
2022/11/22 04:49:14;;;;;;;6.00;5.50;;;;;;;3.84;76.20;94408.41;5030690;28;20242;-70
2022/11/22 04:54:25;;;;;;;5.55;5.15;;;;;;;3.90;75.53;94418.03;5014547;28;20282;-71
2022/11/22 04:56:52;;;;;;;7.13;6.63;;;;;;;3.94;75.44;94418.19;5018019;28;20219;-71
2022/11/22 04:59:20;;;;;;;5.32;4.93;;;;;;;3.82;75.14;94424.34;5017869;28;20533;-71
2022/11/22 05:01:46;;;;;;;5.53;5.13;;;;;;;3.74;75.24;94425.97;5017666;28;20191;-71
2022/11/22 05:04:13;;;;;;;5.90;5.40;;;;;;;3.72;75.39;94430.94;5018318;28;20203;-71
2022/11/22 05:06:40;;;;;;;5.40;5.00;;;;;;;3.76;75.49;94442.78;5018004;28;20199;-71
2022/11/22 05:09:07;;;;;;;5.80;5.30;;;;;;;3.83;75.36;94436.84;5017874;28;20202;-71
2022/11/22 05:11:34;;;;;;;7.07;6.38;;;;;;;3.89;75.23;94437.47;5018547;28;20253;-71
2022/11/22 05:14:01;;;;;;;6.18;5.57;;;;;;;3.91;75.11;94430.53;5018209;28;20199;-72
2022/11/22 05:16:29;;;;;;;6.35;5.85;;;;;;;3.90;75.22;94426.22;5017617;28;20654;-71
2022/11/22 05:18:58;;;;;;;7.50;6.80;;;;;;;3.88;75.50;94441.31;5019572;28;20195;-71
2022/11/22 05:21:26;;;;;;;8.82;8.07;;;;;;;3.80;75.81;94429.28;5020760;28;20221;-71
2022/11/22 05:23:54;;;;;;;8.05;7.35;;;;;;;3.78;75.97;94440.53;5021247;28;20202;-71
2022/11/22 05:26:23;;;;;;;8.52;7.78;;;;;;;3.76;76.42;94425.63;5021236;28;20206;-71
2022/11/22 05:28:50;;;;;;;8.15;7.55;;;;;;;3.76;76.30;94426.41;5020939;28;20201;-71
2022/11/22 05:31:22;;;;;;;10.20;9.40;;;;;;;3.80;76.04;94423.84;5020302;28;20256;-71
2022/11/22 05:33:51;;;;;;;9.70;8.88;;;;;;;3.81;76.21;94425.44;5037433;28;20202;-71
2022/11/22 05:36:18;;;;;;;11.88;10.90;;;;;;;3.77;75.53;94427.22;5020921;28;20222;-71
2022/11/22 05:38:44;;;;;;;14.05;12.85;;;;;;;3.75;76.33;94427.56;5020476;28;20608;-71
2022/11/22 05:41:12;;;;;;;13.27;12.15;;;;;;;3.75;76.29;94424.81;5036720;28;20209;-70
2022/11/22 05:43:40;;;;;;;11.95;10.85;;;;;;;3.74;76.28;94431.41;5020382;28;20209;-70
2022/11/22 05:46:08;;;;;;;9.50;8.80;;;;;;;3.70;76.19;94429.63;5020835;28;20256;-70
2022/11/22 05:48:35;;;;;;;9.65;8.85;;;;;;;3.66;76.20;94425.97;5036704;28;20202;-71
2022/11/22 05:51:06;;;;;;;9.93;8.98;;;;;;;3.65;76.32;94438.00;5020345;28;20197;-71
2022/11/22 05:53:32;;;;;;;12.07;11.07;;;;;;;3.62;76.56;94442.19;5020145;28;20202;-71
2022/11/22 05:56:04;;;;;;;10.75;9.80;;;;;;;3.61;76.45;94435.91;5020733;28;20209;-71
2022/11/22 05:58:30;;;;;;;13.10;12.10;;;;;;;3.60;76.69;94437.06;5020357;28;20205;-71
2022/11/22 06:01:02;;;;;;;10.05;9.25;;;;;;;3.51;76.77;94432.72;5019972;28;20202;-71
2022/11/22 06:03:29;;;;;;;12.65;11.65;;;;;;;3.41;76.58;94436.59;5020000;28;20264;-71
2022/11/22 06:05:55;;;;;;;11.50;10.60;;;;;;;3.46;77.06;94446.53;5019863;28;20203;-74
2022/11/22 06:08:24;;;;;;;11.80;10.70;;;;;;;3.50;76.99;94433.88;5020090;28;20199;-71
2022/11/22 06:10:50;;;;;;;10.82;9.90;;;;;;;3.53;76.87;94441.41;5020350;28;20213;-71
2022/11/22 06:13:18;;;;;;;11.25;10.27;;;;;;;3.58;77.17;94433.03;5019945;28;20202;-71
2022/11/22 06:15:44;;;;;;;12.32;11.23;;;;;;;3.66;76.71;94451.31;5019520;28;20586;-71
2022/11/22 06:18:11;;;;;;;13.13;12.02;;;;;;;3.69;76.92;94455.31;5036977;28;20206;-71
2022/11/22 06:20:38;;;;;;;17.98;16.48;;;;;;;3.66;77.31;94466.88;5015976;28;20241;-71
2022/11/22 06:23:05;;;;;;;28.42;26.02;;;;;;;3.62;76.93;94455.81;5016248;28;20195;-71
2022/11/22 06:25:33;;;;;;;30.85;28.30;;;;;;;3.65;77.16;94451.63;5015980;28;20209;-71
2022/11/22 06:28:00;;;;;;;31.02;28.25;;;;;;;3.71;77.45;94445.69;5016278;28;20195;-71
2022/11/22 06:30:26;;;;;;;26.95;24.55;;;;;;;3.79;77.12;94441.34;5016387;28;20623;-71
2022/11/22 06:32:53;;;;;;;28.80;26.30;;;;;;;3.86;76.76;94441.66;5016074;28;20191;-71
2022/11/22 06:35:20;;;;;;;29.65;26.92;;;;;;;3.88;76.45;94438.56;5016035;28;20199;-71
2022/11/22 06:37:48;;;;;;;26.10;23.83;;;;;;;3.94;76.96;94443.53;5016047;28;20211;-71
2022/11/22 06:40:17;;;;;;;23.60;21.48;;;;;;;3.98;76.30;94449.94;5015960;28;20595;-71
2022/11/22 06:42:45;;;;;;;21.25;19.35;;;;;;;4.06;76.15;94456.50;5016105;28;20194;-71
2022/11/22 06:45:13;;;;;;;19.75;17.95;;;;;;;4.18;76.13;94466.75;5016166;28;20202;-71
2022/11/22 06:47:39;;;;;;;17.00;15.60;;;;;;;4.28;75.67;94464.44;5015859;28;20203;-71
2022/11/22 06:50:07;;;;;;;14.65;13.35;;;;;;;4.37;74.90;94460.88;5032409;28;20211;-71
2022/11/22 06:52:34;;;;;;;13.45;12.32;;;;;;;4.46;75.04;94456.97;5015786;28;20199;-71
2022/11/22 06:55:01;;;;;;;11.40;10.40;;;;;;;4.56;74.49;94462.06;5032569;28;20196;-71
2022/11/22 06:57:27;;;;;;;11.60;10.70;;;;;;;4.64;74.33;94445.94;5015658;28;20572;-71
2022/11/22 06:59:56;;;;;;;11.88;10.88;;;;;;;4.65;74.13;94440.19;5016310;28;20206;-71
2022/11/22 07:02:22;;;;;;;11.70;10.68;;;;;;;4.67;74.85;94454.28;5016146;28;20206;-71
2022/11/22 07:04:49;;;;;;;12.10;11.20;;;;;;;4.79;74.57;94448.94;5015636;28;20207;-71
2022/11/22 07:07:16;;;;;;;12.20;11.13;;;;;;;4.88;74.26;94451.59;5015597;28;20202;-71
2022/11/22 07:09:42;;;;;;;11.60;10.70;;;;;;;4.99;74.65;94455.53;5015328;28;20191;-71
2022/11/22 07:12:09;;;;;;;11.60;10.68;;;;;;;5.09;74.49;94448.88;5015563;28;20211;-71
2022/11/22 07:14:36;;;;;;;11.52;10.52;;;;;;;5.19;74.01;94442.19;5015307;28;20211;-71
2022/11/22 07:17:04;;;;;;;11.15;10.23;;;;;;;5.34;74.37;94448.97;5015431;28;20292;-71
2022/11/22 07:19:32;;;;;;;11.77;10.77;;;;;;;5.40;73.48;94445.72;5014676;28;20231;-71
2022/11/22 07:21:58;;;;;;;10.98;10.07;;;;;;;5.46;73.47;94436.19;5015244;28;20199;-71
2022/11/22 07:24:25;;;;;;;10.70;9.77;;;;;;;5.52;73.40;94440.31;5015207;28;20199;-71
2022/11/22 07:26:53;;;;;;;10.98;10.10;;;;;;;5.59;73.04;94452.63;5015229;28;20195;-71
2022/11/22 07:29:19;;;;;;;11.27;10.18;;;;;;;5.62;72.28;94451.97;5015816;28;20210;-71
2022/11/22 07:31:46;;;;;;;11.07;10.18;;;;;;;5.66;72.73;94450.16;5015104;28;20199;-71
2022/11/22 07:34:17;;;;;;;11.50;10.50;;;;;;;5.64;72.73;94433.28;5015260;28;20198;-71
2022/11/22 07:36:43;;;;;;;10.60;9.73;;;;;;;5.70;72.82;94420.97;5015111;28;20203;-71
2022/11/22 07:39:11;;;;;;;8.80;8.13;;;;;;;5.68;72.52;94426.00;5014966;28;20202;-71
2022/11/22 07:41:38;;;;;;;9.73;8.90;;;;;;;5.63;72.11;94424.28;5014626;28;20199;-71
2022/11/22 07:44:05;;;;;;;9.43;8.73;;;;;;;5.52;71.96;94412.97;5015108;28;20203;-71
2022/11/22 07:46:32;;;;;;;9.70;8.88;;;;;;;5.45;72.23;94423.66;5014908;28;20199;-71
2022/11/22 07:48:59;;;;;;;9.95;9.15;;;;;;;5.47;72.27;94418.63;5014883;28;20198;-71
2022/11/22 07:51:27;;;;;;;10.10;9.32;;;;;;;5.48;72.22;94435.84;5014628;28;20202;-72
2022/11/22 07:53:54;;;;;;;10.13;9.32;;;;;;;5.52;72.47;94442.25;5014920;28;20510;-71
2022/11/22 07:56:21;;;;;;;9.77;9.07;;;;;;;5.58;72.22;94449.09;5014846;28;20183;-72
2022/11/22 07:58:48;;;;;;;10.00;9.20;;;;;;;5.67;72.49;94443.56;5014863;28;20215;-72
2022/11/22 08:01:16;;;;;;;9.40;8.60;;;;;;;5.84;73.10;94432.41;5014503;28;20191;-72
2022/11/22 08:03:44;;;;;;;9.10;8.40;;;;;;;5.98;72.84;94422.00;5014630;28;20199;-72
2022/11/22 08:06:11;;;;;;;8.57;7.88;;;;;;;6.00;72.75;94424.41;5014633;28;20195;-72
2022/11/22 08:08:40;;;;;;;8.98;8.27;;;;;;;5.99;72.22;94428.25;5014550;28;20199;-72
2022/11/22 08:11:07;;;;;;;9.27;8.57;;;;;;;5.98;72.82;94415.72;5014529;28;20207;-72
2022/11/22 08:13:34;;;;;;;9.15;8.55;;;;;;;5.95;72.69;94414.44;5030966;28;20203;-72
2022/11/22 08:16:02;;;;;;;9.35;8.65;;;;;;;5.97;72.74;94420.41;5014516;28;20202;-72
2022/11/22 08:18:29;;;;;;;8.50;7.88;;;;;;;6.11;72.79;94419.28;5014847;28;20218;-71
2022/11/22 08:21:03;;;;;;;9.05;8.35;;;;;;;6.32;73.12;94414.53;5014071;28;20660;-71
2022/11/22 08:23:29;;;;;;;8.05;7.35;;;;;;;6.46;71.73;94409.50;5014096;28;20646;-71
2022/11/22 08:25:59;;;;;;;8.10;7.40;;;;;;;6.49;70.74;94406.06;5014383;28;20199;-71
2022/11/22 08:28:26;;;;;;;8.27;7.53;;;;;;;6.49;71.11;94406.06;5014424;28;20190;-71
2022/11/22 08:30:52;;;;;;;7.53;6.93;;;;;;;6.45;70.67;94404.34;5016383;28;20203;-71
2022/11/22 08:33:19;;;;;;;7.25;6.55;;;;;;;6.42;69.95;94405.81;5017492;28;20217;-71
2022/11/22 08:35:49;;;;;;;7.72;7.03;;;;;;;6.39;70.07;94401.06;5018489;28;20206;-71
2022/11/22 08:38:16;;;;;;;8.00;7.30;;;;;;;6.39;70.07;94387.38;5018405;28;20215;-71
2022/11/22 08:40:43;;;;;;;7.50;6.90;;;;;;;6.34;69.86;94379.34;5018528;28;20202;-72
2022/11/22 08:43:11;;;;;;;7.78;7.07;;;;;;;6.23;69.82;94375.47;5018098;28;20623;-72
2022/11/22 08:45:38;;;;;;;9.15;7.07;;;;;;;6.25;70.46;94365.78;5018176;28;20195;-71
2022/11/22 08:48:05;;;;;;;7.20;6.60;;;;;;;6.24;69.99;94366.91;5018724;28;20198;-72
2022/11/22 08:50:32;;;;;;;6.93;6.32;;;;;;;6.20;69.84;94376.94;5017890;28;20198;-73
2022/11/22 08:53:00;;;;;;;7.43;6.72;;;;;;;6.21;69.75;94367.63;5018345;28;20196;-71
2022/11/22 08:55:27;;;;;;;7.20;6.68;;;;;;;6.23;69.93;94359.06;5017941;28;20195;-72
2022/11/22 08:57:58;;;;;;;7.95;7.20;;;;;;;6.25;69.75;94360.31;5018439;28;20227;-71
2022/11/22 09:00:28;;;;;;;8.05;7.35;;;;;;;6.34;70.00;94373.88;5018042;28;20219;-71
2022/11/22 09:02:55;;;;;;;7.90;7.30;;;;;;;6.41;70.43;94368.63;5018203;28;20540;-71
2022/11/22 09:05:22;;;;;;;9.48;8.63;;;;;;;6.48;70.84;94371.59;5017982;28;20207;-71
2022/11/22 09:07:49;;;;;;;13.70;11.57;;;;;;;6.53;70.54;94356.84;5018346;28;20191;-71
2022/11/22 09:10:16;;;;;;;11.45;10.45;;;;;;;6.55;71.87;94362.00;5018284;28;20210;-71
2022/11/22 09:12:44;;;;;;;12.07;10.82;;;;;;;6.48;71.85;94357.88;5017892;28;20677;-71
2022/11/22 09:15:11;;;;;;;11.90;10.90;;;;;;;6.51;71.44;94356.41;5017688;28;20195;-71
2022/11/22 09:17:40;;;;;;;10.95;9.95;;;;;;;6.55;71.99;94354.56;5017069;28;20223;-71
2022/11/22 09:20:07;;;;;;;13.20;10.50;;;;;;;6.59;71.77;94352.75;5017384;28;20242;-72
2022/11/22 09:22:34;;;;;;;12.13;11.10;;;;;;;6.62;71.88;94360.28;5017617;28;20199;-71
2022/11/22 09:25:01;;;;;;;12.32;11.23;;;;;;;6.61;71.92;94366.09;5034304;28;20203;-71
2022/11/22 09:27:28;;;;;;;12.85;11.80;;;;;;;6.62;72.21;94349.31;5017295;28;20214;-71
2022/11/22 09:29:55;;;;;;;9.43;8.50;;;;;;;6.65;71.54;94353.31;5017699;28;20203;-72
2022/11/22 09:32:21;;;;;;;9.38;8.57;;;;;;;6.65;70.27;94343.16;5017122;28;20203;-71
2022/11/22 09:34:49;;;;;;;10.02;9.05;;;;;;;6.69;70.38;94337.78;5017308;28;20210;-71
2022/11/22 09:37:18;;;;;;;10.85;9.85;;;;;;;6.76;70.49;94335.25;5016849;28;20192;-71
2022/11/22 09:39:45;;;;;;;15.65;14.05;;;;;;;6.83;71.07;94337.41;5016927;28;20229;-71
2022/11/22 09:42:26;;;;;;;16.83;15.10;;;;;;;6.84;71.44;94334.31;5016173;28;20207;-71
2022/11/22 09:45:10;;;;;;;14.88;13.38;;;;;;;6.97;71.66;94335.06;5017313;28;20187;-71
2022/11/22 09:47:44;;;;;;;14.27;12.52;;;;;;;7.01;71.63;94330.50;5016913;28;20199;-71
2022/11/22 09:50:18;;;;;;;14.07;12.68;;;;;;;6.98;70.46;94325.72;5016917;28;20195;-71
2022/11/22 09:52:49;;;;;;;12.63;11.35;;;;;;;6.95;71.17;94323.66;5017399;28;20241;-71
2022/11/22 09:55:21;;;;;;;12.02;11.02;;;;;;;6.94;70.80;94333.03;5016946;28;20195;-71
2022/11/22 09:58:01;;;;;;;10.35;9.45;;;;;;;6.91;70.87;94320.81;5016661;28;20227;-71
2022/11/22 10:00:29;;;;;;;12.18;10.98;;;;;;;6.90;71.01;94318.41;5016898;28;20207;-71
2022/11/22 10:03:00;;;;;;;10.45;9.55;;;;;;;7.02;70.98;94323.06;5017028;28;20203;-71
2022/11/22 10:05:32;;;;;;;10.48;9.57;;;;;;;7.21;71.31;94329.50;5016760;28;20211;-71
2022/11/22 10:08:03;;;;;;;11.07;10.18;;;;;;;7.38;70.42;94320.16;5016685;28;20210;-71
2022/11/22 10:10:34;;;;;;;9.80;9.00;;;;;;;7.40;69.11;94328.81;5016340;28;20649;-71
2022/11/22 10:13:04;;;;;;;10.45;9.45;;;;;;;7.41;69.66;94308.50;5016531;28;20202;-71
2022/11/22 10:15:36;;;;;;;9.50;8.70;;;;;;;7.47;69.73;94306.28;5016253;28;20199;-71
2022/11/22 10:18:07;;;;;;;10.32;9.32;;;;;;;7.63;69.55;94298.09;5032438;28;20226;-71
2022/11/22 10:20:39;;;;;;;8.77;7.97;;;;;;;7.70;68.92;94290.81;5027600;28;20321;-71
2022/11/22 10:23:07;;;;;;;8.35;7.55;;;;;;;7.77;67.45;94290.22;5016505;28;20206;-71
2022/11/22 10:25:39;;;;;;;9.43;8.63;;;;;;;7.77;67.06;94286.66;5016323;28;20206;-71
2022/11/22 10:28:12;;;;;;;9.32;8.52;;;;;;;7.77;67.09;94272.91;5032758;28;20199;-71
2022/11/22 10:30:41;;;;;;;8.48;7.68;;;;;;;7.67;66.84;94266.81;5016393;28;20595;-71
2022/11/22 10:33:13;;;;;;;7.93;7.25;;;;;;;7.69;67.57;94261.75;5016160;28;20199;-71
2022/11/22 10:35:53;;;;;;;8.63;7.75;;;;;;;7.70;66.92;94257.09;5016038;28;20206;-71
2022/11/22 10:38:46;;;;;;;9.40;8.52;;;;;;;7.82;67.48;94257.00;5016446;28;20269;-71
2022/11/22 10:41:32;;;;;;;8.38;7.65;;;;;;;7.71;65.57;94256.72;5012947;28;20543;-71
2022/11/22 10:44:06;;;;;;;9.32;8.32;;;;;;;7.62;66.70;94256.09;5032633;28;20203;-71
2022/11/22 10:46:40;;;;;;;9.40;8.45;;;;;;;7.67;66.92;94261.34;5015995;28;20565;-71
2022/11/22 10:49:16;;;;;;;8.13;7.35;;;;;;;7.64;67.22;94247.53;5016050;28;20195;-71
2022/11/22 10:51:49;;;;;;;9.48;8.20;;;;;;;7.59;66.54;94243.09;5015780;28;20199;-71
2022/11/22 10:54:20;;;;;;;8.95;8.15;;;;;;;7.56;67.09;94254.00;5015588;28;20214;-71
2022/11/22 10:56:52;;;;;;;9.23;8.32;;;;;;;7.59;67.21;94239.53;5015711;28;20207;-71
2022/11/22 10:59:28;;;;;;;8.38;7.57;;;;;;;7.56;66.89;94256.72;5031907;28;20220;-71
2022/11/22 11:01:58;;;;;;;9.02;8.13;;;;;;;7.52;66.90;94239.38;5015382;28;20245;-71
2022/11/22 11:04:28;;;;;;;9.35;8.45;;;;;;;7.51;67.12;94246.00;5016040;28;20296;-71
2022/11/22 11:06:57;;;;;;;9.88;8.85;;;;;;;7.52;67.37;94239.38;5015776;28;20198;-71
2022/11/22 11:09:32;;;;;;;9.90;9.00;;;;;;;7.52;67.55;94245.66;5015125;28;20207;-71
2022/11/22 11:11:59;;;;;;;9.50;8.18;;;;;;;7.52;67.29;94226.47;5015648;28;20578;-71
2022/11/22 11:14:29;;;;;;;9.82;8.93;;;;;;;7.48;67.09;94229.09;5015698;28;20191;-71
2022/11/22 11:16:56;;;;;;;9.50;8.65;;;;;;;7.48;67.22;94231.06;5015565;28;20199;-71
2022/11/22 11:19:25;;;;;;;9.45;8.55;;;;;;;7.48;66.97;94228.31;5014920;28;20243;-71
2022/11/22 11:21:59;;;;;;;8.82;8.02;;;;;;;7.48;67.13;94236.56;5015949;28;20207;-71
2022/11/22 11:24:28;;;;;;;7.90;7.20;;;;;;;7.54;67.35;94234.31;5015076;28;20210;-71
2022/11/22 11:26:56;;;;;;;8.63;7.82;;;;;;;7.55;67.09;94230.41;5015345;28;20207;-71
2022/11/22 11:29:44;;;;;;;9.15;8.35;;;;;;;7.57;67.54;94225.38;5014864;28;20206;-71
2022/11/22 11:32:13;;;;;;;10.07;7.95;;;;;;;7.59;67.32;94217.56;5025865;28;20226;-71
2022/11/22 11:34:43;;;;;;;8.25;7.45;;;;;;;7.62;67.46;94201.19;5015483;28;20199;-71
2022/11/22 11:37:22;;;;;;;8.93;8.13;;;;;;;7.63;67.78;94205.56;5015082;28;20196;-71
2022/11/22 11:39:48;;;;;;;8.65;7.93;;;;;;;7.61;67.38;94204.31;5015013;28;20218;-71
2022/11/22 11:42:36;;;;;;;8.23;7.40;;;;;;;7.59;67.01;94206.59;5015094;28;20214;-71
2022/11/22 11:45:20;;;;;;;7.85;7.15;;;;;;;7.58;67.41;94203.06;5011463;28;20619;-71
2022/11/22 11:47:46;;;;;;;8.27;7.57;;;;;;;7.60;67.53;94199.97;5014946;28;20199;-71
2022/11/22 11:50:18;;;;;;;8.00;7.30;;;;;;;7.66;67.77;94187.56;5014946;28;20198;-71
2022/11/22 11:52:51;;;;;;;8.57;7.78;;;;;;;7.65;67.10;94175.78;5014809;28;20253;-71
2022/11/22 11:55:18;;;;;;;8.02;7.32;;;;;;;7.62;67.39;94182.00;5014799;28;20199;-71